sensor_id;sensor_type;location;lat;lon;timestamp;P1;durP1;ratioP1;P2;durP2;ratioP2
51981;SDS011;37998;53.416;6.730;2022-08-01T00:00:42;8.48;;;3.92;;
51981;SDS011;37998;53.416;6.730;2022-08-01T00:03:07;3.45;;;2.30;;
51981;SDS011;37998;53.416;6.730;2022-08-01T00:05:33;4.57;;;2.17;;
51981;SDS011;37998;53.416;6.730;2022-08-01T00:07:59;9.60;;;2.92;;
51981;SDS011;37998;53.416;6.730;2022-08-01T00:10:24;3.55;;;1.95;;
51981;SDS011;37998;53.416;6.730;2022-08-01T00:12:50;4.43;;;2.00;;
51981;SDS011;37998;53.416;6.730;2022-08-01T00:15:16;6.15;;;2.00;;
51981;SDS011;37998;53.416;6.730;2022-08-01T00:17:42;2.70;;;1.90;;
51981;SDS011;37998;53.416;6.730;2022-08-01T00:20:09;3.15;;;1.85;;
51981;SDS011;37998;53.416;6.730;2022-08-01T00:22:37;4.25;;;1.90;;
51981;SDS011;37998;53.416;6.730;2022-08-01T00:25:03;3.35;;;1.75;;
51981;SDS011;37998;53.416;6.730;2022-08-01T00:27:29;4.15;;;1.80;;
51981;SDS011;37998;53.416;6.730;2022-08-01T00:29:56;3.28;;;1.90;;
51981;SDS011;37998;53.416;6.730;2022-08-01T00:32:22;5.82;;;2.28;;
51981;SDS011;37998;53.416;6.730;2022-08-01T00:34:47;6.47;;;1.90;;
51981;SDS011;37998;53.416;6.730;2022-08-01T00:37:13;2.72;;;2.20;;
51981;SDS011;37998;53.416;6.730;2022-08-01T00:39:39;8.20;;;2.38;;
51981;SDS011;37998;53.416;6.730;2022-08-01T00:42:08;3.25;;;1.90;;
51981;SDS011;37998;53.416;6.730;2022-08-01T00:44:35;4.03;;;2.30;;
51981;SDS011;37998;53.416;6.730;2022-08-01T00:47:01;7.10;;;2.00;;
51981;SDS011;37998;53.416;6.730;2022-08-01T00:49:27;4.15;;;1.88;;
51981;SDS011;37998;53.416;6.730;2022-08-01T00:51:54;4.53;;;1.70;;
51981;SDS011;37998;53.416;6.730;2022-08-01T00:54:20;4.35;;;1.60;;
51981;SDS011;37998;53.416;6.730;2022-08-01T00:56:45;4.00;;;1.60;;
51981;SDS011;37998;53.416;6.730;2022-08-01T00:59:12;2.72;;;1.30;;
51981;SDS011;37998;53.416;6.730;2022-08-01T01:01:39;3.50;;;1.58;;
51981;SDS011;37998;53.416;6.730;2022-08-01T01:04:05;6.00;;;1.65;;
51981;SDS011;37998;53.416;6.730;2022-08-01T01:09:19;6.25;;;2.67;;
51981;SDS011;37998;53.416;6.730;2022-08-01T01:17:21;8.52;;;3.10;;
51981;SDS011;37998;53.416;6.730;2022-08-01T01:19:54;7.50;;;2.78;;
51981;SDS011;37998;53.416;6.730;2022-08-01T01:25:00;9.55;;;2.13;;
51981;SDS011;37998;53.416;6.730;2022-08-01T01:30:23;9.38;;;2.65;;
51981;SDS011;37998;53.416;6.730;2022-08-01T01:32:50;6.03;;;1.80;;
51981;SDS011;37998;53.416;6.730;2022-08-01T01:35:20;5.15;;;2.10;;
51981;SDS011;37998;53.416;6.730;2022-08-01T01:37:49;7.80;;;2.05;;
51981;SDS011;37998;53.416;6.730;2022-08-01T01:40:19;11.32;;;2.53;;
51981;SDS011;37998;53.416;6.730;2022-08-01T01:42:46;13.95;;;2.58;;
51981;SDS011;37998;53.416;6.730;2022-08-01T01:45:13;7.47;;;2.05;;
51981;SDS011;37998;53.416;6.730;2022-08-01T01:47:40;5.38;;;1.70;;
51981;SDS011;37998;53.416;6.730;2022-08-01T01:50:08;7.53;;;2.00;;
51981;SDS011;37998;53.416;6.730;2022-08-01T01:52:35;7.15;;;1.60;;
51981;SDS011;37998;53.416;6.730;2022-08-01T01:55:05;5.18;;;1.73;;
51981;SDS011;37998;53.416;6.730;2022-08-01T01:57:32;7.03;;;1.95;;
51981;SDS011;37998;53.416;6.730;2022-08-01T02:00:04;6.90;;;1.80;;
51981;SDS011;37998;53.416;6.730;2022-08-01T02:02:32;10.70;;;2.38;;
51981;SDS011;37998;53.416;6.730;2022-08-01T02:04:59;4.03;;;2.30;;
51981;SDS011;37998;53.416;6.730;2022-08-01T02:07:25;9.05;;;2.60;;
51981;SDS011;37998;53.416;6.730;2022-08-01T02:09:52;10.38;;;3.67;;
51981;SDS011;37998;53.416;6.730;2022-08-01T02:12:20;14.32;;;3.83;;
51981;SDS011;37998;53.416;6.730;2022-08-01T02:14:49;17.67;;;3.22;;
51981;SDS011;37998;53.416;6.730;2022-08-01T02:17:17;12.30;;;3.22;;
51981;SDS011;37998;53.416;6.730;2022-08-01T02:19:45;9.82;;;3.13;;
51981;SDS011;37998;53.416;6.730;2022-08-01T02:22:14;9.20;;;3.20;;
51981;SDS011;37998;53.416;6.730;2022-08-01T02:24:55;14.82;;;4.50;;
51981;SDS011;37998;53.416;6.730;2022-08-01T02:27:34;12.20;;;3.75;;
51981;SDS011;37998;53.416;6.730;2022-08-01T02:30:05;18.75;;;5.50;;
51981;SDS011;37998;53.416;6.730;2022-08-01T02:32:37;11.32;;;3.92;;
51981;SDS011;37998;53.416;6.730;2022-08-01T02:35:11;15.25;;;3.47;;
51981;SDS011;37998;53.416;6.730;2022-08-01T02:37:42;16.45;;;3.78;;
51981;SDS011;37998;53.416;6.730;2022-08-01T02:40:10;9.15;;;3.00;;
51981;SDS011;37998;53.416;6.730;2022-08-01T02:42:38;15.73;;;5.43;;
51981;SDS011;37998;53.416;6.730;2022-08-01T02:45:10;14.10;;;3.65;;
51981;SDS011;37998;53.416;6.730;2022-08-01T02:47:38;8.25;;;3.33;;
51981;SDS011;37998;53.416;6.730;2022-08-01T02:50:06;12.00;;;3.45;;
51981;SDS011;37998;53.416;6.730;2022-08-01T02:52:34;15.95;;;3.90;;
51981;SDS011;37998;53.416;6.730;2022-08-01T02:55:01;10.93;;;3.53;;
51981;SDS011;37998;53.416;6.730;2022-08-01T02:57:27;12.50;;;4.00;;
51981;SDS011;37998;53.416;6.730;2022-08-01T02:59:55;10.25;;;3.17;;
51981;SDS011;37998;53.416;6.730;2022-08-01T03:02:22;14.95;;;3.90;;
51981;SDS011;37998;53.416;6.730;2022-08-01T03:04:49;14.38;;;3.28;;
51981;SDS011;37998;53.416;6.730;2022-08-01T03:07:17;16.88;;;3.30;;
51981;SDS011;37998;53.416;6.730;2022-08-01T03:09:46;11.50;;;2.95;;
51981;SDS011;37998;53.416;6.730;2022-08-01T03:12:20;14.65;;;4.65;;
51981;SDS011;37998;53.416;6.730;2022-08-01T03:14:49;12.57;;;2.80;;
51981;SDS011;37998;53.416;6.730;2022-08-01T03:17:18;13.25;;;3.25;;
51981;SDS011;37998;53.416;6.730;2022-08-01T03:19:48;15.93;;;3.97;;
51981;SDS011;37998;53.416;6.730;2022-08-01T03:22:15;18.05;;;4.00;;
51981;SDS011;37998;53.416;6.730;2022-08-01T03:24:41;22.23;;;4.20;;
51981;SDS011;37998;53.416;6.730;2022-08-01T03:27:09;17.27;;;4.35;;
51981;SDS011;37998;53.416;6.730;2022-08-01T03:29:36;15.73;;;3.88;;
51981;SDS011;37998;53.416;6.730;2022-08-01T03:32:04;17.55;;;3.80;;
51981;SDS011;37998;53.416;6.730;2022-08-01T03:34:31;16.90;;;4.43;;
51981;SDS011;37998;53.416;6.730;2022-08-01T03:37:14;15.77;;;3.92;;
51981;SDS011;37998;53.416;6.730;2022-08-01T03:39:58;16.10;;;3.53;;
51981;SDS011;37998;53.416;6.730;2022-08-01T03:42:52;20.90;;;5.32;;
51981;SDS011;37998;53.416;6.730;2022-08-01T03:45:20;12.77;;;3.47;;
51981;SDS011;37998;53.416;6.730;2022-08-01T03:47:49;20.52;;;4.72;;
51981;SDS011;37998;53.416;6.730;2022-08-01T03:50:23;15.70;;;3.50;;
51981;SDS011;37998;53.416;6.730;2022-08-01T03:52:50;18.70;;;4.03;;
51981;SDS011;37998;53.416;6.730;2022-08-01T03:55:17;21.92;;;4.47;;
51981;SDS011;37998;53.416;6.730;2022-08-01T03:57:45;17.77;;;3.65;;
51981;SDS011;37998;53.416;6.730;2022-08-01T04:00:12;21.80;;;4.18;;
51981;SDS011;37998;53.416;6.730;2022-08-01T04:02:43;24.27;;;3.65;;
51981;SDS011;37998;53.416;6.730;2022-08-01T04:05:11;27.95;;;4.20;;
51981;SDS011;37998;53.416;6.730;2022-08-01T04:07:37;24.80;;;4.10;;
51981;SDS011;37998;53.416;6.730;2022-08-01T04:10:04;20.85;;;4.20;;
51981;SDS011;37998;53.416;6.730;2022-08-01T04:12:31;22.58;;;5.00;;
51981;SDS011;37998;53.416;6.730;2022-08-01T04:14:58;25.52;;;4.78;;
51981;SDS011;37998;53.416;6.730;2022-08-01T04:17:24;19.45;;;4.32;;
51981;SDS011;37998;53.416;6.730;2022-08-01T04:19:50;24.02;;;4.40;;
51981;SDS011;37998;53.416;6.730;2022-08-01T04:22:15;20.70;;;4.22;;
51981;SDS011;37998;53.416;6.730;2022-08-01T04:24:46;16.48;;;3.72;;
51981;SDS011;37998;53.416;6.730;2022-08-01T04:27:14;22.02;;;3.72;;
51981;SDS011;37998;53.416;6.730;2022-08-01T04:29:46;16.45;;;4.20;;
51981;SDS011;37998;53.416;6.730;2022-08-01T04:32:15;14.60;;;3.65;;
51981;SDS011;37998;53.416;6.730;2022-08-01T04:34:44;15.95;;;3.75;;
51981;SDS011;37998;53.416;6.730;2022-08-01T04:37:11;17.90;;;4.10;;
51981;SDS011;37998;53.416;6.730;2022-08-01T04:39:41;21.98;;;4.22;;
51981;SDS011;37998;53.416;6.730;2022-08-01T04:42:08;20.88;;;4.10;;
51981;SDS011;37998;53.416;6.730;2022-08-01T04:44:36;20.13;;;4.28;;
51981;SDS011;37998;53.416;6.730;2022-08-01T04:47:02;13.93;;;3.70;;
51981;SDS011;37998;53.416;6.730;2022-08-01T04:49:36;13.60;;;3.78;;
51981;SDS011;37998;53.416;6.730;2022-08-01T04:52:02;17.98;;;4.68;;
51981;SDS011;37998;53.416;6.730;2022-08-01T04:54:29;18.55;;;4.35;;
51981;SDS011;37998;53.416;6.730;2022-08-01T04:56:58;20.58;;;4.53;;
51981;SDS011;37998;53.416;6.730;2022-08-01T04:59:31;18.70;;;4.40;;
51981;SDS011;37998;53.416;6.730;2022-08-01T05:02:06;21.83;;;4.55;;
51981;SDS011;37998;53.416;6.730;2022-08-01T05:04:32;18.60;;;4.57;;
51981;SDS011;37998;53.416;6.730;2022-08-01T05:06:58;20.42;;;4.10;;
51981;SDS011;37998;53.416;6.730;2022-08-01T05:09:25;19.73;;;4.07;;
51981;SDS011;37998;53.416;6.730;2022-08-01T05:11:51;15.77;;;4.13;;
51981;SDS011;37998;53.416;6.730;2022-08-01T05:14:16;18.05;;;3.78;;
51981;SDS011;37998;53.416;6.730;2022-08-01T05:16:42;25.80;;;5.35;;
51981;SDS011;37998;53.416;6.730;2022-08-01T05:19:08;14.90;;;3.88;;
51981;SDS011;37998;53.416;6.730;2022-08-01T05:21:34;17.42;;;4.25;;
51981;SDS011;37998;53.416;6.730;2022-08-01T05:24:00;25.95;;;4.38;;
51981;SDS011;37998;53.416;6.730;2022-08-01T05:26:26;17.77;;;4.43;;
51981;SDS011;37998;53.416;6.730;2022-08-01T05:28:51;19.05;;;4.20;;
51981;SDS011;37998;53.416;6.730;2022-08-01T05:31:17;20.08;;;4.30;;
51981;SDS011;37998;53.416;6.730;2022-08-01T05:33:42;23.13;;;4.07;;
51981;SDS011;37998;53.416;6.730;2022-08-01T05:36:08;19.38;;;4.88;;
51981;SDS011;37998;53.416;6.730;2022-08-01T05:38:34;24.55;;;4.68;;
51981;SDS011;37998;53.416;6.730;2022-08-01T05:41:02;13.98;;;3.72;;
51981;SDS011;37998;53.416;6.730;2022-08-01T05:43:28;16.40;;;3.63;;
51981;SDS011;37998;53.416;6.730;2022-08-01T05:45:53;19.58;;;4.45;;
51981;SDS011;37998;53.416;6.730;2022-08-01T05:48:19;16.17;;;3.70;;
51981;SDS011;37998;53.416;6.730;2022-08-01T05:50:44;14.05;;;3.78;;
51981;SDS011;37998;53.416;6.730;2022-08-01T05:53:12;16.52;;;3.97;;
51981;SDS011;37998;53.416;6.730;2022-08-01T05:55:38;21.92;;;4.53;;
51981;SDS011;37998;53.416;6.730;2022-08-01T05:58:04;19.63;;;4.25;;
51981;SDS011;37998;53.416;6.730;2022-08-01T06:00:29;15.80;;;3.90;;
51981;SDS011;37998;53.416;6.730;2022-08-01T06:02:55;15.70;;;4.05;;
51981;SDS011;37998;53.416;6.730;2022-08-01T06:05:21;22.83;;;4.03;;
51981;SDS011;37998;53.416;6.730;2022-08-01T06:07:46;15.98;;;3.78;;
51981;SDS011;37998;53.416;6.730;2022-08-01T06:10:12;15.60;;;3.78;;
51981;SDS011;37998;53.416;6.730;2022-08-01T06:12:38;16.23;;;3.35;;
51981;SDS011;37998;53.416;6.730;2022-08-01T06:15:04;14.43;;;3.50;;
51981;SDS011;37998;53.416;6.730;2022-08-01T06:17:32;20.13;;;3.65;;
51981;SDS011;37998;53.416;6.730;2022-08-01T06:19:58;21.67;;;3.38;;
51981;SDS011;37998;53.416;6.730;2022-08-01T06:22:24;17.08;;;3.83;;
51981;SDS011;37998;53.416;6.730;2022-08-01T06:24:50;19.90;;;3.50;;
51981;SDS011;37998;53.416;6.730;2022-08-01T06:27:16;12.20;;;3.17;;
51981;SDS011;37998;53.416;6.730;2022-08-01T06:29:41;18.90;;;3.90;;
51981;SDS011;37998;53.416;6.730;2022-08-01T06:32:08;21.60;;;3.55;;
51981;SDS011;37998;53.416;6.730;2022-08-01T06:34:34;12.85;;;3.30;;
51981;SDS011;37998;53.416;6.730;2022-08-01T06:37:00;15.60;;;3.70;;
51981;SDS011;37998;53.416;6.730;2022-08-01T06:39:26;12.73;;;2.90;;
51981;SDS011;37998;53.416;6.730;2022-08-01T06:41:52;18.33;;;3.55;;
51981;SDS011;37998;53.416;6.730;2022-08-01T06:44:17;17.35;;;3.28;;
51981;SDS011;37998;53.416;6.730;2022-08-01T06:46:43;13.60;;;3.50;;
51981;SDS011;37998;53.416;6.730;2022-08-01T06:49:09;15.15;;;3.42;;
51981;SDS011;37998;53.416;6.730;2022-08-01T06:51:35;15.20;;;3.25;;
51981;SDS011;37998;53.416;6.730;2022-08-01T06:54:00;7.55;;;2.63;;
51981;SDS011;37998;53.416;6.730;2022-08-01T06:56:26;15.27;;;3.38;;
51981;SDS011;37998;53.416;6.730;2022-08-01T06:58:52;18.13;;;3.05;;
51981;SDS011;37998;53.416;6.730;2022-08-01T07:01:17;16.42;;;3.33;;
51981;SDS011;37998;53.416;6.730;2022-08-01T07:03:43;15.45;;;3.38;;
51981;SDS011;37998;53.416;6.730;2022-08-01T07:06:09;12.98;;;2.95;;
51981;SDS011;37998;53.416;6.730;2022-08-01T07:08:35;10.98;;;2.53;;
51981;SDS011;37998;53.416;6.730;2022-08-01T07:11:01;13.88;;;3.17;;
51981;SDS011;37998;53.416;6.730;2022-08-01T07:13:28;22.65;;;3.22;;
51981;SDS011;37998;53.416;6.730;2022-08-01T07:15:56;12.25;;;2.55;;
51981;SDS011;37998;53.416;6.730;2022-08-01T07:18:24;9.68;;;3.00;;
51981;SDS011;37998;53.416;6.730;2022-08-01T07:20:50;9.95;;;2.92;;
51981;SDS011;37998;53.416;6.730;2022-08-01T07:23:16;7.20;;;2.50;;
51981;SDS011;37998;53.416;6.730;2022-08-01T07:25:42;13.93;;;3.10;;
51981;SDS011;37998;53.416;6.730;2022-08-01T07:28:07;13.00;;;2.97;;
51981;SDS011;37998;53.416;6.730;2022-08-01T07:30:33;12.52;;;2.60;;
51981;SDS011;37998;53.416;6.730;2022-08-01T07:33:00;17.98;;;3.25;;
51981;SDS011;37998;53.416;6.730;2022-08-01T07:35:26;11.07;;;2.75;;
51981;SDS011;37998;53.416;6.730;2022-08-01T07:37:52;17.00;;;3.05;;
51981;SDS011;37998;53.416;6.730;2022-08-01T07:40:18;13.35;;;3.75;;
51981;SDS011;37998;53.416;6.730;2022-08-01T07:42:44;9.80;;;2.65;;
51981;SDS011;37998;53.416;6.730;2022-08-01T07:45:11;9.63;;;2.92;;
51981;SDS011;37998;53.416;6.730;2022-08-01T07:47:37;8.90;;;2.35;;
51981;SDS011;37998;53.416;6.730;2022-08-01T07:50:03;10.98;;;2.42;;
51981;SDS011;37998;53.416;6.730;2022-08-01T07:52:31;14.82;;;3.05;;
51981;SDS011;37998;53.416;6.730;2022-08-01T07:54:57;14.48;;;3.03;;
51981;SDS011;37998;53.416;6.730;2022-08-01T07:57:25;13.30;;;2.22;;
51981;SDS011;37998;53.416;6.730;2022-08-01T07:59:51;13.13;;;2.38;;
51981;SDS011;37998;53.416;6.730;2022-08-01T08:02:17;12.32;;;3.00;;
51981;SDS011;37998;53.416;6.730;2022-08-01T08:04:42;11.52;;;2.92;;
51981;SDS011;37998;53.416;6.730;2022-08-01T08:07:08;7.70;;;1.90;;
51981;SDS011;37998;53.416;6.730;2022-08-01T08:09:34;11.98;;;2.28;;
51981;SDS011;37998;53.416;6.730;2022-08-01T08:11:59;10.43;;;2.58;;
51981;SDS011;37998;53.416;6.730;2022-08-01T08:14:25;12.98;;;2.30;;
51981;SDS011;37998;53.416;6.730;2022-08-01T08:16:51;7.25;;;2.30;;
51981;SDS011;37998;53.416;6.730;2022-08-01T08:19:17;13.32;;;2.38;;
51981;SDS011;37998;53.416;6.730;2022-08-01T08:21:42;10.23;;;2.00;;
51981;SDS011;37998;53.416;6.730;2022-08-01T08:24:08;8.75;;;2.05;;
51981;SDS011;37998;53.416;6.730;2022-08-01T08:26:49;8.77;;;2.22;;
51981;SDS011;37998;53.416;6.730;2022-08-01T08:29:18;13.32;;;3.55;;
51981;SDS011;37998;53.416;6.730;2022-08-01T08:31:44;9.93;;;2.20;;
51981;SDS011;37998;53.416;6.730;2022-08-01T08:34:10;12.55;;;2.40;;
51981;SDS011;37998;53.416;6.730;2022-08-01T08:36:36;6.82;;;1.98;;
51981;SDS011;37998;53.416;6.730;2022-08-01T08:39:02;11.38;;;2.63;;
51981;SDS011;37998;53.416;6.730;2022-08-01T08:41:29;10.73;;;2.60;;
51981;SDS011;37998;53.416;6.730;2022-08-01T08:43:56;5.68;;;2.17;;
51981;SDS011;37998;53.416;6.730;2022-08-01T08:46:24;12.00;;;2.67;;
51981;SDS011;37998;53.416;6.730;2022-08-01T08:48:51;8.57;;;2.28;;
51981;SDS011;37998;53.416;6.730;2022-08-01T08:51:18;8.75;;;2.50;;
51981;SDS011;37998;53.416;6.730;2022-08-01T08:53:44;6.57;;;2.08;;
51981;SDS011;37998;53.416;6.730;2022-08-01T08:56:12;8.43;;;1.88;;
51981;SDS011;37998;53.416;6.730;2022-08-01T08:58:40;10.93;;;2.20;;
51981;SDS011;37998;53.416;6.730;2022-08-01T09:01:08;7.88;;;2.28;;
51981;SDS011;37998;53.416;6.730;2022-08-01T09:03:35;8.88;;;2.10;;
51981;SDS011;37998;53.416;6.730;2022-08-01T09:06:01;9.95;;;2.17;;
51981;SDS011;37998;53.416;6.730;2022-08-01T09:08:27;7.22;;;2.30;;
51981;SDS011;37998;53.416;6.730;2022-08-01T09:10:53;7.32;;;1.73;;
51981;SDS011;37998;53.416;6.730;2022-08-01T09:13:19;7.45;;;2.40;;
51981;SDS011;37998;53.416;6.730;2022-08-01T09:15:45;12.63;;;2.35;;
51981;SDS011;37998;53.416;6.730;2022-08-01T09:23:36;12.50;;;2.88;;
51981;SDS011;37998;53.416;6.730;2022-08-01T09:26:08;7.53;;;1.98;;
51981;SDS011;37998;53.416;6.730;2022-08-01T09:28:34;9.55;;;2.00;;
51981;SDS011;37998;53.416;6.730;2022-08-01T09:31:07;10.55;;;2.22;;
51981;SDS011;37998;53.416;6.730;2022-08-01T09:36:25;7.97;;;1.92;;
51981;SDS011;37998;53.416;6.730;2022-08-01T09:38:52;5.88;;;1.60;;
51981;SDS011;37998;53.416;6.730;2022-08-01T09:41:29;11.43;;;2.20;;
51981;SDS011;37998;53.416;6.730;2022-08-01T09:43:56;9.82;;;2.30;;
51981;SDS011;37998;53.416;6.730;2022-08-01T09:46:22;12.77;;;2.22;;
51981;SDS011;37998;53.416;6.730;2022-08-01T09:51:32;11.38;;;1.88;;
51981;SDS011;37998;53.416;6.730;2022-08-01T09:54:03;6.50;;;2.13;;
51981;SDS011;37998;53.416;6.730;2022-08-01T09:56:37;7.70;;;2.33;;
51981;SDS011;37998;53.416;6.730;2022-08-01T09:59:02;9.27;;;2.17;;
51981;SDS011;37998;53.416;6.730;2022-08-01T10:01:39;8.50;;;1.88;;
51981;SDS011;37998;53.416;6.730;2022-08-01T10:04:14;7.95;;;1.73;;
51981;SDS011;37998;53.416;6.730;2022-08-01T10:06:45;9.07;;;2.13;;
51981;SDS011;37998;53.416;6.730;2022-08-01T10:09:26;10.13;;;2.15;;
51981;SDS011;37998;53.416;6.730;2022-08-01T10:11:53;14.48;;;2.63;;
51981;SDS011;37998;53.416;6.730;2022-08-01T10:14:21;12.85;;;1.95;;
51981;SDS011;37998;53.416;6.730;2022-08-01T10:16:49;8.60;;;1.88;;
51981;SDS011;37998;53.416;6.730;2022-08-01T10:19:18;12.82;;;2.10;;
51981;SDS011;37998;53.416;6.730;2022-08-01T10:21:46;7.70;;;1.60;;
51981;SDS011;37998;53.416;6.730;2022-08-01T10:24:15;8.95;;;2.65;;
51981;SDS011;37998;53.416;6.730;2022-08-01T10:26:42;9.15;;;1.90;;
51981;SDS011;37998;53.416;6.730;2022-08-01T10:29:12;9.05;;;2.10;;
51981;SDS011;37998;53.416;6.730;2022-08-01T10:31:38;7.35;;;1.60;;
51981;SDS011;37998;53.416;6.730;2022-08-01T10:34:04;9.98;;;2.30;;
51981;SDS011;37998;53.416;6.730;2022-08-01T10:36:30;6.35;;;1.92;;
51981;SDS011;37998;53.416;6.730;2022-08-01T10:38:57;9.10;;;1.83;;
51981;SDS011;37998;53.416;6.730;2022-08-01T10:41:24;6.38;;;1.80;;
51981;SDS011;37998;53.416;6.730;2022-08-01T10:43:51;9.98;;;2.28;;
51981;SDS011;37998;53.416;6.730;2022-08-01T10:46:18;7.53;;;1.52;;
51981;SDS011;37998;53.416;6.730;2022-08-01T10:48:47;13.60;;;2.00;;
51981;SDS011;37998;53.416;6.730;2022-08-01T10:51:15;8.60;;;1.70;;
51981;SDS011;37998;53.416;6.730;2022-08-01T10:53:46;5.25;;;1.60;;
51981;SDS011;37998;53.416;6.730;2022-08-01T10:56:22;8.98;;;2.00;;
51981;SDS011;37998;53.416;6.730;2022-08-01T10:58:49;7.55;;;1.70;;
51981;SDS011;37998;53.416;6.730;2022-08-01T11:14:21;5.45;;;1.40;;
51981;SDS011;37998;53.416;6.730;2022-08-01T11:16:46;8.90;;;2.20;;
51981;SDS011;37998;53.416;6.730;2022-08-01T11:19:12;6.55;;;1.48;;
51981;SDS011;37998;53.416;6.730;2022-08-01T11:27:19;5.28;;;1.80;;
51981;SDS011;37998;53.416;6.730;2022-08-01T11:32:33;5.57;;;1.55;;
51981;SDS011;37998;53.416;6.730;2022-08-01T11:35:12;6.90;;;1.70;;
51981;SDS011;37998;53.416;6.730;2022-08-01T11:37:38;7.00;;;1.80;;
51981;SDS011;37998;53.416;6.730;2022-08-01T11:40:17;7.03;;;1.70;;
51981;SDS011;37998;53.416;6.730;2022-08-01T11:42:44;4.80;;;1.52;;
51981;SDS011;37998;53.416;6.730;2022-08-01T11:45:11;7.18;;;1.80;;
51981;SDS011;37998;53.416;6.730;2022-08-01T11:47:43;5.85;;;1.50;;
51981;SDS011;37998;53.416;6.730;2022-08-01T11:52:57;8.88;;;1.92;;
51981;SDS011;37998;53.416;6.730;2022-08-01T11:55:24;8.88;;;1.80;;
51981;SDS011;37998;53.416;6.730;2022-08-01T11:57:51;6.03;;;1.42;;
51981;SDS011;37998;53.416;6.730;2022-08-01T12:00:24;9.73;;;2.00;;
51981;SDS011;37998;53.416;6.730;2022-08-01T12:03:03;3.90;;;1.50;;
51981;SDS011;37998;53.416;6.730;2022-08-01T12:05:30;6.72;;;2.35;;
51981;SDS011;37998;53.416;6.730;2022-08-01T12:07:58;6.18;;;1.60;;
51981;SDS011;37998;53.416;6.730;2022-08-01T12:10:26;8.40;;;1.85;;
51981;SDS011;37998;53.416;6.730;2022-08-01T12:12:59;8.48;;;1.77;;
51981;SDS011;37998;53.416;6.730;2022-08-01T12:15:29;9.90;;;1.92;;
51981;SDS011;37998;53.416;6.730;2022-08-01T12:18:00;5.70;;;1.83;;
51981;SDS011;37998;53.416;6.730;2022-08-01T12:20:32;9.73;;;1.88;;
51981;SDS011;37998;53.416;6.730;2022-08-01T12:23:00;10.07;;;1.70;;
51981;SDS011;37998;53.416;6.730;2022-08-01T12:25:33;5.68;;;1.52;;
51981;SDS011;37998;53.416;6.730;2022-08-01T12:28:05;5.88;;;1.88;;
51981;SDS011;37998;53.416;6.730;2022-08-01T12:30:32;7.30;;;1.92;;
51981;SDS011;37998;53.416;6.730;2022-08-01T12:33:03;6.90;;;2.15;;
51981;SDS011;37998;53.416;6.730;2022-08-01T12:35:30;9.98;;;1.98;;
51981;SDS011;37998;53.416;6.730;2022-08-01T12:37:58;6.68;;;1.55;;
51981;SDS011;37998;53.416;6.730;2022-08-01T12:40:30;5.38;;;1.60;;
51981;SDS011;37998;53.416;6.730;2022-08-01T12:43:01;10.48;;;1.88;;
51981;SDS011;37998;53.416;6.730;2022-08-01T12:45:33;7.57;;;1.58;;
51981;SDS011;37998;53.416;6.730;2022-08-01T12:48:10;8.00;;;2.20;;
51981;SDS011;37998;53.416;6.730;2022-08-01T12:50:38;8.82;;;2.33;;
51981;SDS011;37998;53.416;6.730;2022-08-01T12:53:05;8.20;;;1.92;;
51981;SDS011;37998;53.416;6.730;2022-08-01T12:55:32;5.28;;;1.63;;
51981;SDS011;37998;53.416;6.730;2022-08-01T12:58:09;13.07;;;2.00;;
51981;SDS011;37998;53.416;6.730;2022-08-01T13:00:36;7.40;;;1.65;;
51981;SDS011;37998;53.416;6.730;2022-08-01T13:03:05;7.28;;;1.90;;
51981;SDS011;37998;53.416;6.730;2022-08-01T13:08:17;5.30;;;1.75;;
51981;SDS011;37998;53.416;6.730;2022-08-01T13:10:44;6.50;;;1.80;;
51981;SDS011;37998;53.416;6.730;2022-08-01T13:13:11;10.93;;;2.17;;
51981;SDS011;37998;53.416;6.730;2022-08-01T13:15:39;7.90;;;1.90;;
51981;SDS011;37998;53.416;6.730;2022-08-01T13:20:49;11.30;;;2.38;;
51981;SDS011;37998;53.416;6.730;2022-08-01T13:23:16;8.88;;;2.10;;
51981;SDS011;37998;53.416;6.730;2022-08-01T13:25:46;10.48;;;2.22;;
51981;SDS011;37998;53.416;6.730;2022-08-01T13:28:18;10.80;;;1.67;;
51981;SDS011;37998;53.416;6.730;2022-08-01T13:31:18;7.13;;;1.60;;
51981;SDS011;37998;53.416;6.730;2022-08-01T13:33:45;6.65;;;1.85;;
51981;SDS011;37998;53.416;6.730;2022-08-01T13:36:11;5.35;;;1.65;;
51981;SDS011;37998;53.416;6.730;2022-08-01T13:38:38;5.50;;;1.60;;
51981;SDS011;37998;53.416;6.730;2022-08-01T13:41:23;10.02;;;2.00;;
51981;SDS011;37998;53.416;6.730;2022-08-01T13:43:49;6.38;;;2.10;;
51981;SDS011;37998;53.416;6.730;2022-08-01T13:46:15;12.20;;;1.90;;
51981;SDS011;37998;53.416;6.730;2022-08-01T13:48:41;4.20;;;1.50;;
51981;SDS011;37998;53.416;6.730;2022-08-01T13:51:06;7.65;;;1.70;;
51981;SDS011;37998;53.416;6.730;2022-08-01T13:53:32;9.00;;;2.13;;
51981;SDS011;37998;53.416;6.730;2022-08-01T13:55:58;6.43;;;2.03;;
51981;SDS011;37998;53.416;6.730;2022-08-01T13:58:23;6.68;;;2.00;;
51981;SDS011;37998;53.416;6.730;2022-08-01T14:00:49;9.85;;;1.95;;
51981;SDS011;37998;53.416;6.730;2022-08-01T14:03:15;5.75;;;1.40;;
51981;SDS011;37998;53.416;6.730;2022-08-01T14:05:41;5.25;;;1.67;;
51981;SDS011;37998;53.416;6.730;2022-08-01T14:08:10;9.35;;;2.05;;
51981;SDS011;37998;53.416;6.730;2022-08-01T14:10:36;6.35;;;1.60;;
51981;SDS011;37998;53.416;6.730;2022-08-01T14:13:02;9.30;;;1.63;;
51981;SDS011;37998;53.416;6.730;2022-08-01T14:15:28;6.78;;;1.80;;
51981;SDS011;37998;53.416;6.730;2022-08-01T14:17:55;5.95;;;2.00;;
51981;SDS011;37998;53.416;6.730;2022-08-01T14:20:21;5.35;;;1.45;;
51981;SDS011;37998;53.416;6.730;2022-08-01T14:22:46;6.43;;;1.85;;
51981;SDS011;37998;53.416;6.730;2022-08-01T14:25:12;8.20;;;1.98;;
51981;SDS011;37998;53.416;6.730;2022-08-01T14:27:38;9.07;;;2.13;;
51981;SDS011;37998;53.416;6.730;2022-08-01T14:30:06;5.00;;;1.52;;
51981;SDS011;37998;53.416;6.730;2022-08-01T14:32:33;7.13;;;2.10;;
51981;SDS011;37998;53.416;6.730;2022-08-01T14:35:00;6.78;;;1.65;;
51981;SDS011;37998;53.416;6.730;2022-08-01T14:37:27;6.68;;;1.63;;
51981;SDS011;37998;53.416;6.730;2022-08-01T14:39:54;9.80;;;2.15;;
51981;SDS011;37998;53.416;6.730;2022-08-01T14:42:23;5.40;;;1.70;;
51981;SDS011;37998;53.416;6.730;2022-08-01T14:44:49;7.07;;;1.80;;
51981;SDS011;37998;53.416;6.730;2022-08-01T14:47:15;7.90;;;2.10;;
51981;SDS011;37998;53.416;6.730;2022-08-01T14:49:41;5.32;;;1.63;;
51981;SDS011;37998;53.416;6.730;2022-08-01T14:52:06;6.00;;;1.63;;
51981;SDS011;37998;53.416;6.730;2022-08-01T14:54:32;5.57;;;1.30;;
51981;SDS011;37998;53.416;6.730;2022-08-01T14:56:58;8.00;;;1.95;;
51981;SDS011;37998;53.416;6.730;2022-08-01T14:59:23;8.27;;;1.58;;
51981;SDS011;37998;53.416;6.730;2022-08-01T15:01:49;8.73;;;2.00;;
51981;SDS011;37998;53.416;6.730;2022-08-01T15:04:15;6.30;;;1.70;;
51981;SDS011;37998;53.416;6.730;2022-08-01T15:06:42;4.88;;;1.67;;
51981;SDS011;37998;53.416;6.730;2022-08-01T15:09:08;7.05;;;1.80;;
51981;SDS011;37998;53.416;6.730;2022-08-01T15:11:33;10.95;;;2.17;;
51981;SDS011;37998;53.416;6.730;2022-08-01T15:13:59;10.20;;;1.83;;
51981;SDS011;37998;53.416;6.730;2022-08-01T15:16:43;4.18;;;1.73;;
51981;SDS011;37998;53.416;6.730;2022-08-01T15:19:09;8.25;;;1.90;;
51981;SDS011;37998;53.416;6.730;2022-08-01T15:21:34;7.15;;;1.60;;
51981;SDS011;37998;53.416;6.730;2022-08-01T15:24:00;11.30;;;1.90;;
51981;SDS011;37998;53.416;6.730;2022-08-01T15:26:25;6.65;;;1.85;;
51981;SDS011;37998;53.416;6.730;2022-08-01T15:28:52;7.82;;;1.60;;
51981;SDS011;37998;53.416;6.730;2022-08-01T15:31:18;6.32;;;2.00;;
51981;SDS011;37998;53.416;6.730;2022-08-01T15:33:43;5.35;;;1.75;;
51981;SDS011;37998;53.416;6.730;2022-08-01T15:36:09;8.57;;;2.05;;
51981;SDS011;37998;53.416;6.730;2022-08-01T15:38:35;6.60;;;1.95;;